Ivs Sparrowhawk — 9V2742 — position and weather

sailwx.info

Track history (hours):
 
Tides and Currents Weather Stations Pressure Air Temp Water Temp Dewpoint Dewpoint Depression Visibility Wind Speed Wind Dir Waves Ship Positions

Ivs Sparrowhawk

Last reported at 2018-May-20 03:53 UTC. Time now 2018-May-21 07:00 UTC.
Position N 31°47' W 080°34'.

Length 180 m; draft 7 m.

Type: Cargo ship. MMSI: 565583000.

Date/timePositionNaut miles runAvg speedWind from/ knotsBaromVisibWave heightAir tempDewpointWater temp
2018-May-20 03:53N 31°47' W 080°34'513.0
2018-May-20 03:30N 31°51' W 080°37'612.1
2018-May-20 03:00N 31°57' W 080°40'5 9.3
2018-May-20 02:30N 31°59' W 080°45'510.5
2018-May-20 02:00N 32°02' W 080°50'5 9.1
2018-May-20 01:30N 32°02' W 080°55'4 8.8
2018-May-20 01:00N 32°05' W 080°59'4 8.0
2018-May-20 00:30N 32°05' W 081°04'2 4.2
2018-May-20 00:00N 32°06' W 081°06'0 0.0
2018-May-19 23:30N 32°06' W 081°06'0 0.0
2018-May-19 22:59N 32°06' W 081°06'0 0.0
2018-May-19 22:29N 32°06' W 081°06'0 0.0
2018-May-19 21:59N 32°06' W 081°06'0 0.0
2018-May-19 21:29N 32°06' W 081°06'0 0.0
2018-May-19 20:59N 32°06' W 081°06'0 0.0
2018-May-19 20:29N 32°06' W 081°06'0 0.0
2018-May-19 19:59N 32°06' W 081°06'0 0.0
2018-May-19 19:29N 32°06' W 081°06'0 0.0
2018-May-19 18:59N 32°06' W 081°06'0 0.0
2018-May-19 18:23N 32°06' W 081°06'0 0.0
2018-May-19 17:53N 32°06' W 081°06'0 0.0
2018-May-19 17:23N 32°06' W 081°06'0 0.0
2018-May-19 16:59N 32°06' W 081°06'0 0.0
2018-May-19 16:29N 32°06' W 081°06'0 0.0
2018-May-19 15:59N 32°06' W 081°06'0 0.0
2018-May-19 15:29N 32°06' W 081°06'0 0.0
2018-May-19 14:59N 32°06' W 081°06'0 0.0
2018-May-19 14:23N 32°06' W 081°06'0 0.0
2018-May-19 13:47N 32°06' W 081°06'0 0.0
2018-May-19 13:29N 32°06' W 081°06'0 0.0
2018-May-19 12:59N 32°06' W 081°06'0 0.0
2018-May-19 12:29N 32°06' W 081°06'0 0.0
2018-May-19 11:59N 32°06' W 081°06'0 0.0
2018-May-19 11:29N 32°06' W 081°06'0 0.0
2018-May-19 10:59N 32°06' W 081°06'0 0.0
2018-May-19 10:29N 32°06' W 081°06'0 0.0
2018-May-19 09:53N 32°06' W 081°06'0 0.0
2018-May-19 09:29N 32°06' W 081°06'0 0.0
2018-May-19 08:59N 32°06' W 081°06'0 0.0
2018-May-19 08:29N 32°06' W 081°06'0 0.0
2018-May-19 07:59N 32°06' W 081°06'0 0.0
2018-May-19 07:29N 32°06' W 081°06'0 0.0
2018-May-19 06:59N 32°06' W 081°06'0 0.0
2018-May-19 06:29N 32°06' W 081°06'0 0.0
2018-May-19 05:59N 32°06' W 081°06'0 0.0
2018-May-19 05:23N 32°06' W 081°06'0 0.0
2018-May-19 04:59N 32°06' W 081°06'0 0.0
2018-May-19 04:29N 32°06' W 081°06'0 0.0
2018-May-19 03:59N 32°06' W 081°06'0 0.0
2018-May-19 03:29N 32°06' W 081°06'0 0.0
2018-May-19 02:59N 32°06' W 081°06'0 0.0
2018-May-19 02:29N 32°06' W 081°06'0 0.0
2018-May-19 01:53N 32°06' W 081°06'0 0.0
2018-May-19 01:23N 32°06' W 081°06'0 0.0
2018-May-19 00:59N 32°06' W 081°06'0 0.0
2018-May-19 00:29N 32°06' W 081°06'0 0.0
2018-May-18 23:59N 32°06' W 081°06'0 0.0
2018-May-18 23:29N 32°06' W 081°06'0 0.0
2018-May-18 22:59N 32°06' W 081°06'0 0.0
2018-May-18 22:29N 32°06' W 081°06'0 0.0
2018-May-18 21:59N 32°06' W 081°06'0 0.0
2018-May-18 21:29N 32°06' W 081°06'0 0.0
2018-May-18 20:59N 32°06' W 081°06'0 0.0
2018-May-18 20:29N 32°06' W 081°06'0 0.0
2018-May-18 19:59N 32°06' W 081°06'0 0.0
2018-May-18 19:29N 32°06' W 081°06'0 0.0
2018-May-18 18:59N 32°06' W 081°06'0 0.0
2018-May-18 18:29N 32°06' W 081°06'0 0.0
2018-May-18 17:59N 32°06' W 081°06'0 0.0
2018-May-18 17:29N 32°06' W 081°06'0 0.0
2018-May-18 16:59N 32°06' W 081°06'0 0.0
2018-May-18 16:29N 32°06' W 081°06'0 0.0
2018-May-18 15:59N 32°06' W 081°06'0 0.0
2018-May-18 15:29N 32°06' W 081°06'0 0.0
2018-May-18 14:59N 32°06' W 081°06'0 0.0
2018-May-18 14:29N 32°06' W 081°06'0 0.0
2018-May-18 13:59N 32°06' W 081°06'0 0.0
2018-May-18 13:29N 32°06' W 081°06'0 0.0
2018-May-18 12:47N 32°06' W 081°06'0 0.0
2018-May-18 12:29N 32°06' W 081°06'0 0.0
2018-May-18 11:59N 32°06' W 081°06'0 0.0
2018-May-18 11:29N 32°06' W 081°06'0 0.0
2018-May-18 10:59N 32°06' W 081°06'0 0.0
2018-May-18 10:23N 32°06' W 081°06'0 0.0
2018-May-18 09:47N 32°06' W 081°06'0 0.0
2018-May-18 09:29N 32°06' W 081°06'0 0.0
2018-May-18 08:59N 32°06' W 081°06'0 0.0
2018-May-18 08:29N 32°06' W 081°06'0 0.0
2018-May-18 07:59N 32°06' W 081°06'0 0.0
2018-May-18 07:29N 32°06' W 081°06'0 0.0
2018-May-18 06:59N 32°06' W 081°06'0 0.0
2018-May-18 06:23N 32°06' W 081°06'0 0.0
2018-May-18 05:59N 32°06' W 081°06'0 0.0
2018-May-18 05:29N 32°06' W 081°06'0 0.0
2018-May-18 04:53N 32°06' W 081°06'0 0.0
2018-May-18 04:29N 32°06' W 081°06'0 0.0
2018-May-18 03:53N 32°06' W 081°06'0 0.0
2018-May-18 03:23N 32°06' W 081°06'0 0.0
2018-May-18 02:59N 32°06' W 081°06'0 0.0
2018-May-18 02:23N 32°06' W 081°06'0 0.0
2018-May-18 01:59N 32°06' W 081°06'0 0.0
2018-May-18 01:29N 32°06' W 081°06'0 0.0
2018-May-18 00:59N 32°06' W 081°06'0 0.0
2018-May-18 00:29N 32°06' W 081°06'0 0.0
2018-May-17 23:59N 32°06' W 081°06'0 0.0
2018-May-17 23:29N 32°06' W 081°06'0 0.0
2018-May-17 22:59N 32°06' W 081°06'0 0.0
2018-May-17 22:29N 32°06' W 081°06'0 0.0
2018-May-17 21:59N 32°06' W 081°06'0 0.0
2018-May-17 21:29N 32°06' W 081°06'0 0.0
2018-May-17 20:59N 32°06' W 081°06'0 0.0
2018-May-17 20:29N 32°06' W 081°06'0 0.0
2018-May-17 19:47N 32°06' W 081°06'0 0.0
2018-May-17 19:29N 32°06' W 081°06'0 0.0
2018-May-17 18:59N 32°06' W 081°06'0 0.0
2018-May-17 18:23N 32°06' W 081°06'0 0.0
2018-May-17 17:53N 32°06' W 081°06'0 0.0
2018-May-17 17:29N 32°06' W 081°06'0 0.0
2018-May-17 16:59N 32°06' W 081°06'0 0.0
2018-May-17 16:29N 32°06' W 081°06'0 0.0
2018-May-17 15:59N 32°06' W 081°06'0 0.0
2018-May-17 15:29N 32°06' W 081°06'0 0.0
2018-May-17 14:47N 32°06' W 081°06'0 0.0
2018-May-17 14:29N 32°06' W 081°06'0 0.0
2018-May-17 13:59N 32°06' W 081°06'0 0.0
2018-May-17 13:29N 32°06' W 081°06'0 0.0
2018-May-17 12:53N 32°06' W 081°06'0 0.0
2018-May-17 12:23N 32°06' W 081°06'0 0.0
2018-May-17 11:59N 32°06' W 081°06'0 0.0
2018-May-17 11:29N 32°06' W 081°06'1 1.4
2018-May-17 11:00N 32°06' W 081°07'0 1.0
2018-May-17 10:31N 32°06' W 081°06'3 6.6
2018-May-17 10:01N 32°05' W 081°03'4 8.5
2018-May-17 09:31N 32°04' W 080°58'5 9.8
2018-May-17 09:01N 32°02' W 080°53'611.1
2018-May-17 08:30N 31°59' W 080°47'510.5
2018-May-17 08:01N 31°57' W 080°41'3 5.2
2018-May-17 07:30N 31°56' W 080°38'510.2
2018-May-17 07:00N 31°56' W 080°32'610.3
2018-May-17 06:28N 31°57' W 080°26'2111.8
2018-May-17 04:41N 31°58' W 080°01'412.0
2018-May-17 04:19N 31°58' W 079°56'  
Track history (hours):
 
Tides and Currents Weather Stations Pressure Air Temp Water Temp Dewpoint Dewpoint Depression Visibility Wind Speed Wind Dir Waves Ship Positions

Ivs Sparrowhawk

Last reported at 2018-May-20 03:53 UTC. Time now 2018-May-21 07:00 UTC.
Position N 31°47' W 080°34'.

Length 180 m; draft 7 m.

Type: Cargo ship. MMSI: 565583000.

Date/timePositionNaut miles runAvg speedWind from/ knotsBaromVisibWave heightAir tempDewpointWater temp
2018-May-20 03:53N 31°47' W 080°34'513.0
2018-May-20 03:30N 31°51' W 080°37'612.1
2018-May-20 03:00N 31°57' W 080°40'5 9.3
2018-May-20 02:30N 31°59' W 080°45'510.5
2018-May-20 02:00N 32°02' W 080°50'5 9.1
2018-May-20 01:30N 32°02' W 080°55'4 8.8
2018-May-20 01:00N 32°05' W 080°59'4 8.0
2018-May-20 00:30N 32°05' W 081°04'2 4.2
2018-May-20 00:00N 32°06' W 081°06'0 0.0
2018-May-19 23:30N 32°06' W 081°06'0 0.0
2018-May-19 22:59N 32°06' W 081°06'0 0.0
2018-May-19 22:29N 32°06' W 081°06'0 0.0
2018-May-19 21:59N 32°06' W 081°06'0 0.0
2018-May-19 21:29N 32°06' W 081°06'0 0.0
2018-May-19 20:59N 32°06' W 081°06'0 0.0
2018-May-19 20:29N 32°06' W 081°06'0 0.0
2018-May-19 19:59N 32°06' W 081°06'0 0.0
2018-May-19 19:29N 32°06' W 081°06'0 0.0
2018-May-19 18:59N 32°06' W 081°06'0 0.0
2018-May-19 18:23N 32°06' W 081°06'0 0.0
2018-May-19 17:53N 32°06' W 081°06'0 0.0
2018-May-19 17:23N 32°06' W 081°06'0 0.0
2018-May-19 16:59N 32°06' W 081°06'0 0.0
2018-May-19 16:29N 32°06' W 081°06'0 0.0
2018-May-19 15:59N 32°06' W 081°06'0 0.0
2018-May-19 15:29N 32°06' W 081°06'0 0.0
2018-May-19 14:59N 32°06' W 081°06'0 0.0
2018-May-19 14:23N 32°06' W 081°06'0 0.0
2018-May-19 13:47N 32°06' W 081°06'0 0.0
2018-May-19 13:29N 32°06' W 081°06'0 0.0
2018-May-19 12:59N 32°06' W 081°06'0 0.0
2018-May-19 12:29N 32°06' W 081°06'0 0.0
2018-May-19 11:59N 32°06' W 081°06'0 0.0
2018-May-19 11:29N 32°06' W 081°06'0 0.0
2018-May-19 10:59N 32°06' W 081°06'0 0.0
2018-May-19 10:29N 32°06' W 081°06'0 0.0
2018-May-19 09:53N 32°06' W 081°06'0 0.0
2018-May-19 09:29N 32°06' W 081°06'0 0.0
2018-May-19 08:59N 32°06' W 081°06'0 0.0
2018-May-19 08:29N 32°06' W 081°06'0 0.0
2018-May-19 07:59N 32°06' W 081°06'0 0.0
2018-May-19 07:29N 32°06' W 081°06'0 0.0
2018-May-19 06:59N 32°06' W 081°06'0 0.0
2018-May-19 06:29N 32°06' W 081°06'0 0.0
2018-May-19 05:59N 32°06' W 081°06'0 0.0
2018-May-19 05:23N 32°06' W 081°06'0 0.0
2018-May-19 04:59N 32°06' W 081°06'0 0.0
2018-May-19 04:29N 32°06' W 081°06'0 0.0
2018-May-19 03:59N 32°06' W 081°06'0 0.0
2018-May-19 03:29N 32°06' W 081°06'0 0.0
2018-May-19 02:59N 32°06' W 081°06'0 0.0
2018-May-19 02:29N 32°06' W 081°06'0 0.0
2018-May-19 01:53N 32°06' W 081°06'0 0.0
2018-May-19 01:23N 32°06' W 081°06'0 0.0
2018-May-19 00:59N 32°06' W 081°06'0 0.0
2018-May-19 00:29N 32°06' W 081°06'0 0.0
2018-May-18 23:59N 32°06' W 081°06'0 0.0
2018-May-18 23:29N 32°06' W 081°06'0 0.0
2018-May-18 22:59N 32°06' W 081°06'0 0.0
2018-May-18 22:29N 32°06' W 081°06'0 0.0
2018-May-18 21:59N 32°06' W 081°06'0 0.0
2018-May-18 21:29N 32°06' W 081°06'0 0.0
2018-May-18 20:59N 32°06' W 081°06'0 0.0
2018-May-18 20:29N 32°06' W 081°06'0 0.0
2018-May-18 19:59N 32°06' W 081°06'0 0.0
2018-May-18 19:29N 32°06' W 081°06'0 0.0
2018-May-18 18:59N 32°06' W 081°06'0 0.0
2018-May-18 18:29N 32°06' W 081°06'0 0.0
2018-May-18 17:59N 32°06' W 081°06'0 0.0
2018-May-18 17:29N 32°06' W 081°06'0 0.0
2018-May-18 16:59N 32°06' W 081°06'0 0.0
2018-May-18 16:29N 32°06' W 081°06'0 0.0
2018-May-18 15:59N 32°06' W 081°06'0 0.0
2018-May-18 15:29N 32°06' W 081°06'0 0.0
2018-May-18 14:59N 32°06' W 081°06'0 0.0
2018-May-18 14:29N 32°06' W 081°06'0 0.0
2018-May-18 13:59N 32°06' W 081°06'0 0.0
2018-May-18 13:29N 32°06' W 081°06'0 0.0
2018-May-18 12:47N 32°06' W 081°06'0 0.0
2018-May-18 12:29N 32°06' W 081°06'0 0.0
2018-May-18 11:59N 32°06' W 081°06'0 0.0
2018-May-18 11:29N 32°06' W 081°06'0 0.0
2018-May-18 10:59N 32°06' W 081°06'0 0.0
2018-May-18 10:23N 32°06' W 081°06'0 0.0
2018-May-18 09:47N 32°06' W 081°06'0 0.0
2018-May-18 09:29N 32°06' W 081°06'0 0.0
2018-May-18 08:59N 32°06' W 081°06'0 0.0
2018-May-18 08:29N 32°06' W 081°06'0 0.0
2018-May-18 07:59N 32°06' W 081°06'0 0.0
2018-May-18 07:29N 32°06' W 081°06'0 0.0
2018-May-18 06:59N 32°06' W 081°06'0 0.0
2018-May-18 06:23N 32°06' W 081°06'0 0.0
2018-May-18 05:59N 32°06' W 081°06'0 0.0
2018-May-18 05:29N 32°06' W 081°06'0 0.0
2018-May-18 04:53N 32°06' W 081°06'0 0.0
2018-May-18 04:29N 32°06' W 081°06'0 0.0
2018-May-18 03:53N 32°06' W 081°06'0 0.0
2018-May-18 03:23N 32°06' W 081°06'0 0.0
2018-May-18 02:59N 32°06' W 081°06'0 0.0
2018-May-18 02:23N 32°06' W 081°06'0 0.0
2018-May-18 01:59N 32°06' W 081°06'0 0.0
2018-May-18 01:29N 32°06' W 081°06'0 0.0
2018-May-18 00:59N 32°06' W 081°06'0 0.0
2018-May-18 00:29N 32°06' W 081°06'0 0.0
2018-May-17 23:59N 32°06' W 081°06'0 0.0
2018-May-17 23:29N 32°06' W 081°06'0 0.0
2018-May-17 22:59N 32°06' W 081°06'0 0.0
2018-May-17 22:29N 32°06' W 081°06'0 0.0
2018-May-17 21:59N 32°06' W 081°06'0 0.0
2018-May-17 21:29N 32°06' W 081°06'0 0.0
2018-May-17 20:59N 32°06' W 081°06'0 0.0
2018-May-17 20:29N 32°06' W 081°06'0 0.0
2018-May-17 19:47N 32°06' W 081°06'0 0.0
2018-May-17 19:29N 32°06' W 081°06'0 0.0
2018-May-17 18:59N 32°06' W 081°06'0 0.0
2018-May-17 18:23N 32°06' W 081°06'0 0.0
2018-May-17 17:53N 32°06' W 081°06'0 0.0
2018-May-17 17:29N 32°06' W 081°06'0 0.0
2018-May-17 16:59N 32°06' W 081°06'0 0.0
2018-May-17 16:29N 32°06' W 081°06'0 0.0
2018-May-17 15:59N 32°06' W 081°06'0 0.0
2018-May-17 15:29N 32°06' W 081°06'0 0.0
2018-May-17 14:47N 32°06' W 081°06'0 0.0
2018-May-17 14:29N 32°06' W 081°06'0 0.0
2018-May-17 13:59N 32°06' W 081°06'0 0.0
2018-May-17 13:29N 32°06' W 081°06'0 0.0
2018-May-17 12:53N 32°06' W 081°06'0 0.0
2018-May-17 12:23N 32°06' W 081°06'0 0.0
2018-May-17 11:59N 32°06' W 081°06'0 0.0
2018-May-17 11:29N 32°06' W 081°06'1 1.4
2018-May-17 11:00N 32°06' W 081°07'0 1.0
2018-May-17 10:31N 32°06' W 081°06'3 6.6
2018-May-17 10:01N 32°05' W 081°03'4 8.5
2018-May-17 09:31N 32°04' W 080°58'5 9.8
2018-May-17 09:01N 32°02' W 080°53'611.1
2018-May-17 08:30N 31°59' W 080°47'510.5
2018-May-17 08:01N 31°57' W 080°41'3 5.2
2018-May-17 07:30N 31°56' W 080°38'510.2
2018-May-17 07:00N 31°56' W 080°32'610.3
2018-May-17 06:28N 31°57' W 080°26'2111.8
2018-May-17 04:41N 31°58' W 080°01'412.0
2018-May-17 04:19N 31°58' W 079°56'  

Dump ship's entire track history